<?xml version="1.0" encoding="UTF-8"?><gpx xmlns="http://www.topografix.com/GPX/1/1" version="1.1" creator="iOrient"><trk><name>Большая прогулка. Первая гонка</name><trkseg><trkpt lat="55.8343800" lon="48.9580244"><time>2021-04-17T07:14:16.620</time></trkpt><trkpt lat="55.8343373" lon="48.9579849"><time>2021-04-17T07:14:18.607</time></trkpt><trkpt lat="55.8342934" lon="48.9579503"><time>2021-04-17T07:14:21.613</time></trkpt><trkpt lat="55.8342558" lon="48.9579046"><time>2021-04-17T07:14:24.633</time></trkpt><trkpt lat="55.8342477" lon="48.9578249"><time>2021-04-17T07:14:27.620</time></trkpt><trkpt lat="55.8342508" lon="48.9577201"><time>2021-04-17T07:14:32.607</time></trkpt><trkpt lat="55.8342107" lon="48.9576762"><time>2021-04-17T07:14:37.613</time></trkpt><trkpt lat="55.8341483" lon="48.9576517"><time>2021-04-17T07:14:39.620</time></trkpt><trkpt lat="55.8340772" lon="48.9576167"><time>2021-04-17T07:14:41.613</time></trkpt><trkpt lat="55.8340470" lon="48.9575457"><time>2021-04-17T07:14:44.627</time></trkpt><trkpt lat="55.8340243" lon="48.9574316"><time>2021-04-17T07:14:47.610</time></trkpt><trkpt lat="55.8340190" lon="48.9573472"><time>2021-04-17T07:14:49.607</time></trkpt><trkpt lat="55.8340324" lon="48.9572653"><time>2021-04-17T07:14:51.613</time></trkpt><trkpt lat="55.8340415" lon="48.9571859"><time>2021-04-17T07:14:53.610</time></trkpt><trkpt lat="55.8340306" lon="48.9570796"><time>2021-04-17T07:14:56.637</time></trkpt><trkpt lat="55.8340274" lon="48.9569994"><time>2021-04-17T07:14:58.623</time></trkpt><trkpt lat="55.8340284" lon="48.9568908"><time>2021-04-17T07:15:02.613</time></trkpt><trkpt lat="55.8340476" lon="48.9567781"><time>2021-04-17T07:15:04.623</time></trkpt><trkpt lat="55.8340534" lon="48.9566886"><time>2021-04-17T07:15:06.617</time></trkpt><trkpt lat="55.8340753" lon="48.9565975"><time>2021-04-17T07:15:11.617</time></trkpt><trkpt lat="55.8340808" lon="48.9564978"><time>2021-04-17T07:15:14.617</time></trkpt><trkpt lat="55.8340844" lon="48.9563944"><time>2021-04-17T07:15:17.610</time></trkpt><trkpt lat="55.8341051" lon="48.9563165"><time>2021-04-17T07:15:20.627</time></trkpt><trkpt lat="55.8341227" lon="48.9562201"><time>2021-04-17T07:15:24.600</time></trkpt><trkpt lat="55.8341330" lon="48.9561276"><time>2021-04-17T07:15:27.613</time></trkpt><trkpt lat="55.8341393" lon="48.9560435"><time>2021-04-17T07:15:30.610</time></trkpt><trkpt lat="55.8341513" lon="48.9559548"><time>2021-04-17T07:15:34.603</time></trkpt><trkpt lat="55.8341589" lon="48.9558701"><time>2021-04-17T07:15:38.607</time></trkpt><trkpt lat="55.8341699" lon="48.9557756"><time>2021-04-17T07:15:43.660</time></trkpt><trkpt lat="55.8341978" lon="48.9556748"><time>2021-04-17T07:15:48.617</time></trkpt><trkpt lat="55.8342195" lon="48.9555983"><time>2021-04-17T07:15:50.607</time></trkpt><trkpt lat="55.8342357" lon="48.9555180"><time>2021-04-17T07:15:52.607</time></trkpt><trkpt lat="55.8342504" lon="48.9554216"><time>2021-04-17T07:15:54.623</time></trkpt><trkpt lat="55.8342544" lon="48.9553315"><time>2021-04-17T07:15:56.610</time></trkpt><trkpt lat="55.8342702" lon="48.9552459"><time>2021-04-17T07:16:00.610</time></trkpt><trkpt lat="55.8342989" lon="48.9551506"><time>2021-04-17T07:16:05.613</time></trkpt><trkpt lat="55.8343112" lon="48.9550624"><time>2021-04-17T07:16:07.613</time></trkpt><trkpt lat="55.8342890" lon="48.9549513"><time>2021-04-17T07:16:09.600</time></trkpt><trkpt lat="55.8343019" lon="48.9548646"><time>2021-04-17T07:16:11.613</time></trkpt><trkpt lat="55.8342859" lon="48.9547897"><time>2021-04-17T07:16:14.613</time></trkpt><trkpt lat="55.8342825" lon="48.9546971"><time>2021-04-17T07:16:17.613</time></trkpt><trkpt lat="55.8342828" lon="48.9546105"><time>2021-04-17T07:16:19.613</time></trkpt><trkpt lat="55.8342952" lon="48.9545281"><time>2021-04-17T07:16:21.630</time></trkpt><trkpt lat="55.8343058" lon="48.9544334"><time>2021-04-17T07:16:23.613</time></trkpt><trkpt lat="55.8343035" lon="48.9543465"><time>2021-04-17T07:16:25.610</time></trkpt><trkpt lat="55.8342982" lon="48.9542596"><time>2021-04-17T07:16:27.633</time></trkpt><trkpt lat="55.8342964" lon="48.9541723"><time>2021-04-17T07:16:29.607</time></trkpt><trkpt lat="55.8342826" lon="48.9540918"><time>2021-04-17T07:16:31.607</time></trkpt><trkpt lat="55.8342681" lon="48.9539916"><time>2021-04-17T07:16:34.610</time></trkpt><trkpt lat="55.8342842" lon="48.9539008"><time>2021-04-17T07:16:37.627</time></trkpt><trkpt lat="55.8342795" lon="48.9538078"><time>2021-04-17T07:16:40.603</time></trkpt><trkpt lat="55.8342794" lon="48.9537243"><time>2021-04-17T07:16:42.607</time></trkpt><trkpt lat="55.8342881" lon="48.9536218"><time>2021-04-17T07:16:44.607</time></trkpt><trkpt lat="55.8343047" lon="48.9535286"><time>2021-04-17T07:16:46.607</time></trkpt><trkpt lat="55.8343182" lon="48.9534498"><time>2021-04-17T07:16:48.607</time></trkpt><trkpt lat="55.8343332" lon="48.9533663"><time>2021-04-17T07:16:50.600</time></trkpt><trkpt lat="55.8343360" lon="48.9532649"><time>2021-04-17T07:16:52.610</time></trkpt><trkpt lat="55.8343417" lon="48.9531517"><time>2021-04-17T07:16:59.613</time></trkpt><trkpt lat="55.8343517" lon="48.9530382"><time>2021-04-17T07:17:01.613</time></trkpt><trkpt lat="55.8343680" lon="48.9529532"><time>2021-04-17T07:17:03.607</time></trkpt><trkpt lat="55.8343900" lon="48.9528817"><time>2021-04-17T07:17:05.607</time></trkpt><trkpt lat="55.8344021" lon="48.9527879"><time>2021-04-17T07:17:07.607</time></trkpt><trkpt lat="55.8344070" lon="48.9526990"><time>2021-04-17T07:17:09.607</time></trkpt><trkpt lat="55.8344102" lon="48.9526070"><time>2021-04-17T07:17:11.587</time></trkpt><trkpt lat="55.8344208" lon="48.9525073"><time>2021-04-17T07:17:14.607</time></trkpt><trkpt lat="55.8344392" lon="48.9524054"><time>2021-04-17T07:17:17.613</time></trkpt><trkpt lat="55.8344368" lon="48.9523105"><time>2021-04-17T07:17:23.603</time></trkpt><trkpt lat="55.8344220" lon="48.9522314"><time>2021-04-17T07:17:27.607</time></trkpt><trkpt lat="55.8344413" lon="48.9521412"><time>2021-04-17T07:17:30.613</time></trkpt><trkpt lat="55.8344604" lon="48.9520647"><time>2021-04-17T07:17:32.627</time></trkpt><trkpt lat="55.8344685" lon="48.9519817"><time>2021-04-17T07:17:35.637</time></trkpt><trkpt lat="55.8344707" lon="48.9518848"><time>2021-04-17T07:17:39.633</time></trkpt><trkpt lat="55.8344716" lon="48.9517880"><time>2021-04-17T07:17:42.600</time></trkpt><trkpt lat="55.8344764" lon="48.9516762"><time>2021-04-17T07:17:46.610</time></trkpt><trkpt lat="55.8344683" lon="48.9515639"><time>2021-04-17T07:17:49.617</time></trkpt><trkpt lat="55.8344657" lon="48.9514760"><time>2021-04-17T07:17:53.617</time></trkpt><trkpt lat="55.8344581" lon="48.9513679"><time>2021-04-17T07:17:57.613</time></trkpt><trkpt lat="55.8344464" lon="48.9512843"><time>2021-04-17T07:18:00.627</time></trkpt><trkpt lat="55.8343857" lon="48.9507814"><time>2021-04-17T07:18:16.123</time></trkpt><trkpt lat="55.8343558" lon="48.9507215"><time>2021-04-17T07:18:18.613</time></trkpt><trkpt lat="55.8343159" lon="48.9506590"><time>2021-04-17T07:18:21.620</time></trkpt><trkpt lat="55.8342786" lon="48.9505820"><time>2021-04-17T07:18:25.603</time></trkpt><trkpt lat="55.8342405" lon="48.9505347"><time>2021-04-17T07:18:28.600</time></trkpt><trkpt lat="55.8342014" lon="48.9504775"><time>2021-04-17T07:18:32.633</time></trkpt><trkpt lat="55.8341590" lon="48.9504088"><time>2021-04-17T07:18:36.620</time></trkpt><trkpt lat="55.8341071" lon="48.9503754"><time>2021-04-17T07:18:39.630</time></trkpt><trkpt lat="55.8340650" lon="48.9503182"><time>2021-04-17T07:18:45.607</time></trkpt><trkpt lat="55.8340646" lon="48.9502299"><time>2021-04-17T07:18:49.813</time></trkpt><trkpt lat="55.8340654" lon="48.9501425"><time>2021-04-17T07:18:55.630</time></trkpt><trkpt lat="55.8340533" lon="48.9500651"><time>2021-04-17T07:19:00.603</time></trkpt><trkpt lat="55.8340745" lon="48.9500392"><time>2021-04-17T07:19:09.677</time></trkpt><trkpt lat="55.8340211" lon="48.9501279"><time>2021-04-17T07:20:17.627</time></trkpt><trkpt lat="55.8339980" lon="48.9502047"><time>2021-04-17T07:20:21.637</time></trkpt><trkpt lat="55.8340346" lon="48.9501394"><time>2021-04-17T07:20:36.613</time></trkpt><trkpt lat="55.8340803" lon="48.9500946"><time>2021-04-17T07:20:41.610</time></trkpt><trkpt lat="55.8341238" lon="48.9500516"><time>2021-04-17T07:20:46.610</time></trkpt><trkpt lat="55.8341654" lon="48.9499985"><time>2021-04-17T07:20:50.620</time></trkpt><trkpt lat="55.8342137" lon="48.9499488"><time>2021-04-17T07:20:53.663</time></trkpt><trkpt lat="55.8342566" lon="48.9499017"><time>2021-04-17T07:20:57.610</time></trkpt><trkpt lat="55.8342978" lon="48.9498656"><time>2021-04-17T07:21:00.607</time></trkpt><trkpt lat="55.8343427" lon="48.9498933"><time>2021-04-17T07:21:05.633</time></trkpt><trkpt lat="55.8343887" lon="48.9499019"><time>2021-04-17T07:21:18.607</time></trkpt><trkpt lat="55.8344405" lon="48.9498921"><time>2021-04-17T07:21:23.617</time></trkpt><trkpt lat="55.8344847" lon="48.9498680"><time>2021-04-17T07:21:31.607</time></trkpt><trkpt lat="55.8345296" lon="48.9498195"><time>2021-04-17T07:21:37.617</time></trkpt><trkpt lat="55.8365128" lon="48.9501582"><time>2021-04-17T07:24:55.603</time></trkpt><trkpt lat="55.8365452" lon="48.9500896"><time>2021-04-17T07:24:58.613</time></trkpt><trkpt lat="55.8365530" lon="48.9500017"><time>2021-04-17T07:25:03.627</time></trkpt><trkpt lat="55.8365751" lon="48.9499320"><time>2021-04-17T07:25:19.610</time></trkpt><trkpt lat="55.8365348" lon="48.9498956"><time>2021-04-17T07:25:37.613</time></trkpt><trkpt lat="55.8365376" lon="48.9498129"><time>2021-04-17T07:26:00.603</time></trkpt><trkpt lat="55.8365823" lon="48.9498255"><time>2021-04-17T07:26:20.650</time></trkpt><trkpt lat="55.8366211" lon="48.9497669"><time>2021-04-17T07:26:57.610</time></trkpt><trkpt lat="55.8388657" lon="48.9438340"><time>2021-04-17T07:34:00.637</time></trkpt><trkpt lat="55.8388359" lon="48.9437447"><time>2021-04-17T07:34:01.610</time></trkpt><trkpt lat="55.8387964" lon="48.9436070"><time>2021-04-17T07:34:03.623</time></trkpt><trkpt lat="55.8387972" lon="48.9435016"><time>2021-04-17T07:34:07.607</time></trkpt><trkpt lat="55.8388097" lon="48.9434126"><time>2021-04-17T07:34:11.620</time></trkpt><trkpt lat="55.8387789" lon="48.9433330"><time>2021-04-17T07:34:15.633</time></trkpt><trkpt lat="55.8387300" lon="48.9433152"><time>2021-04-17T07:34:20.610</time></trkpt><trkpt lat="55.8387407" lon="48.9432346"><time>2021-04-17T07:34:26.607</time></trkpt><trkpt lat="55.8386969" lon="48.9431912"><time>2021-04-17T07:34:34.610</time></trkpt><trkpt lat="55.8387358" lon="48.9431341"><time>2021-04-17T07:34:40.613</time></trkpt><trkpt lat="55.8387678" lon="48.9430625"><time>2021-04-17T07:34:57.617</time></trkpt><trkpt lat="55.8391179" lon="48.9425668"><time>2021-04-17T07:35:54.603</time></trkpt><trkpt lat="55.8391315" lon="48.9424887"><time>2021-04-17T07:35:57.617</time></trkpt><trkpt lat="55.8391403" lon="48.9424048"><time>2021-04-17T07:36:01.593</time></trkpt><trkpt lat="55.8391618" lon="48.9423240"><time>2021-04-17T07:36:05.610</time></trkpt><trkpt lat="55.8392024" lon="48.9422834"><time>2021-04-17T07:36:10.593</time></trkpt><trkpt lat="55.8392383" lon="48.9422096"><time>2021-04-17T07:36:16.607</time></trkpt><trkpt lat="55.8392501" lon="48.9421240"><time>2021-04-17T07:36:22.613</time></trkpt><trkpt lat="55.8392906" lon="48.9420784"><time>2021-04-17T07:36:28.610</time></trkpt><trkpt lat="55.8393340" lon="48.9420442"><time>2021-04-17T07:36:36.607</time></trkpt><trkpt lat="55.8393551" lon="48.9419670"><time>2021-04-17T07:36:42.623</time></trkpt><trkpt lat="55.8393495" lon="48.9418740"><time>2021-04-17T07:36:51.620</time></trkpt><trkpt lat="55.8393225" lon="48.9417997"><time>2021-04-17T07:36:55.617</time></trkpt><trkpt lat="55.8400486" lon="48.9385152"><time>2021-04-17T07:42:34.617</time></trkpt><trkpt lat="55.8401000" lon="48.9384953"><time>2021-04-17T07:42:35.620</time></trkpt><trkpt lat="55.8401314" lon="48.9384362"><time>2021-04-17T07:42:38.630</time></trkpt><trkpt lat="55.8401314" lon="48.9384362"><time>2021-04-17T07:42:38.757</time></trkpt><trkpt lat="55.8401645" lon="48.9383703"><time>2021-04-17T07:42:53.630</time></trkpt><trkpt lat="55.8401914" lon="48.9383040"><time>2021-04-17T07:42:58.600</time></trkpt><trkpt lat="55.8402373" lon="48.9383293"><time>2021-04-17T07:43:07.617</time></trkpt><trkpt lat="55.8402660" lon="48.9382626"><time>2021-04-17T07:43:18.610</time></trkpt><trkpt lat="55.8403063" lon="48.9382173"><time>2021-04-17T07:43:28.603</time></trkpt><trkpt lat="55.8403526" lon="48.9382351"><time>2021-04-17T07:43:36.597</time></trkpt><trkpt lat="55.8403946" lon="48.9382761"><time>2021-04-17T07:43:44.603</time></trkpt><trkpt lat="55.8404416" lon="48.9382449"><time>2021-04-17T07:44:00.603</time></trkpt><trkpt lat="55.8404885" lon="48.9382392"><time>2021-04-17T07:44:08.613</time></trkpt><trkpt lat="55.8405368" lon="48.9382164"><time>2021-04-17T07:44:13.610</time></trkpt><trkpt lat="55.8405849" lon="48.9382356"><time>2021-04-17T07:44:21.607</time></trkpt><trkpt lat="55.8406313" lon="48.9381903"><time>2021-04-17T07:44:25.610</time></trkpt><trkpt lat="55.8406782" lon="48.9381468"><time>2021-04-17T07:44:32.613</time></trkpt><trkpt lat="55.8407234" lon="48.9381466"><time>2021-04-17T07:44:42.617</time></trkpt><trkpt lat="55.8417793" lon="48.9331329"><time>2021-04-17T07:52:32.597</time></trkpt><trkpt lat="55.8417187" lon="48.9330970"><time>2021-04-17T07:52:34.603</time></trkpt><trkpt lat="55.8416791" lon="48.9330669"><time>2021-04-17T07:52:38.773</time></trkpt><trkpt lat="55.8416796" lon="48.9330541"><time>2021-04-17T07:52:39.600</time></trkpt><trkpt lat="55.8416420" lon="48.9331091"><time>2021-04-17T07:53:10.603</time></trkpt><trkpt lat="55.8415797" lon="48.9331375"><time>2021-04-17T07:53:14.617</time></trkpt><trkpt lat="55.8415252" lon="48.9331738"><time>2021-04-17T07:53:17.607</time></trkpt><trkpt lat="55.8414674" lon="48.9331875"><time>2021-04-17T07:53:22.623</time></trkpt><trkpt lat="55.8414182" lon="48.9331814"><time>2021-04-17T07:53:25.610</time></trkpt><trkpt lat="55.8413674" lon="48.9331649"><time>2021-04-17T07:53:28.627</time></trkpt><trkpt lat="55.8413121" lon="48.9331421"><time>2021-04-17T07:53:31.610</time></trkpt><trkpt lat="55.8412561" lon="48.9331303"><time>2021-04-17T07:53:34.617</time></trkpt><trkpt lat="55.8412057" lon="48.9330947"><time>2021-04-17T07:53:39.603</time></trkpt><trkpt lat="55.8411718" lon="48.9330187"><time>2021-04-17T07:53:49.633</time></trkpt><trkpt lat="55.8410928" lon="48.9329961"><time>2021-04-17T07:53:52.617</time></trkpt><trkpt lat="55.8410374" lon="48.9330015"><time>2021-04-17T07:53:54.613</time></trkpt><trkpt lat="55.8409822" lon="48.9329739"><time>2021-04-17T07:54:00.607</time></trkpt><trkpt lat="55.8409354" lon="48.9329556"><time>2021-04-17T07:54:03.627</time></trkpt><trkpt lat="55.8408914" lon="48.9328997"><time>2021-04-17T07:54:08.610</time></trkpt><trkpt lat="55.8408523" lon="48.9328528"><time>2021-04-17T07:54:17.613</time></trkpt><trkpt lat="55.8408055" lon="48.9327898"><time>2021-04-17T07:54:22.603</time></trkpt><trkpt lat="55.8407592" lon="48.9327790"><time>2021-04-17T07:54:28.597</time></trkpt><trkpt lat="55.8406993" lon="48.9327865"><time>2021-04-17T07:54:33.627</time></trkpt><trkpt lat="55.8406437" lon="48.9327665"><time>2021-04-17T07:54:36.603</time></trkpt><trkpt lat="55.8405942" lon="48.9327493"><time>2021-04-17T07:54:41.610</time></trkpt><trkpt lat="55.8405565" lon="48.9326960"><time>2021-04-17T07:54:45.617</time></trkpt><trkpt lat="55.8404724" lon="48.9326743"><time>2021-04-17T07:54:51.610</time></trkpt><trkpt lat="55.8404259" lon="48.9326852"><time>2021-04-17T07:54:54.610</time></trkpt><trkpt lat="55.8403921" lon="48.9326183"><time>2021-04-17T07:55:10.613</time></trkpt><trkpt lat="55.8403475" lon="48.9325493"><time>2021-04-17T07:55:14.627</time></trkpt><trkpt lat="55.8402916" lon="48.9325341"><time>2021-04-17T07:55:17.613</time></trkpt><trkpt lat="55.8402440" lon="48.9325252"><time>2021-04-17T07:55:20.617</time></trkpt><trkpt lat="55.8401900" lon="48.9324905"><time>2021-04-17T07:55:25.650</time></trkpt><trkpt lat="55.8401406" lon="48.9324593"><time>2021-04-17T07:55:28.610</time></trkpt><trkpt lat="55.8400897" lon="48.9324254"><time>2021-04-17T07:55:30.617</time></trkpt><trkpt lat="55.8400499" lon="48.9323828"><time>2021-04-17T07:55:34.610</time></trkpt><trkpt lat="55.8388110" lon="48.9317374"><time>2021-04-17T07:57:52.617</time></trkpt><trkpt lat="55.8387251" lon="48.9317219"><time>2021-04-17T07:57:54.623</time></trkpt><trkpt lat="55.8386676" lon="48.9317392"><time>2021-04-17T07:57:56.613</time></trkpt><trkpt lat="55.8386209" lon="48.9317649"><time>2021-04-17T07:57:58.620</time></trkpt><trkpt lat="55.8385701" lon="48.9318230"><time>2021-04-17T07:58:01.617</time></trkpt><trkpt lat="55.8385367" lon="48.9318908"><time>2021-04-17T07:58:05.610</time></trkpt><trkpt lat="55.8385176" lon="48.9318727"><time>2021-04-17T07:58:17.687</time></trkpt><trkpt lat="55.8385699" lon="48.9318248"><time>2021-04-17T07:59:03.603</time></trkpt><trkpt lat="55.8385779" lon="48.9317242"><time>2021-04-17T07:59:07.600</time></trkpt><trkpt lat="55.8385839" lon="48.9316417"><time>2021-04-17T07:59:09.590</time></trkpt><trkpt lat="55.8385825" lon="48.9315545"><time>2021-04-17T07:59:12.597</time></trkpt><trkpt lat="55.8385618" lon="48.9314786"><time>2021-04-17T07:59:15.700</time></trkpt><trkpt lat="55.8385075" lon="48.9314279"><time>2021-04-17T07:59:20.627</time></trkpt><trkpt lat="55.8384618" lon="48.9314004"><time>2021-04-17T07:59:23.620</time></trkpt><trkpt lat="55.8383981" lon="48.9313711"><time>2021-04-17T07:59:25.617</time></trkpt><trkpt lat="55.8383368" lon="48.9313444"><time>2021-04-17T07:59:27.613</time></trkpt><trkpt lat="55.8382906" lon="48.9312966"><time>2021-04-17T07:59:29.603</time></trkpt><trkpt lat="55.8382393" lon="48.9312441"><time>2021-04-17T07:59:32.633</time></trkpt><trkpt lat="55.8381960" lon="48.9312106"><time>2021-04-17T07:59:34.607</time></trkpt><trkpt lat="55.8381531" lon="48.9311770"><time>2021-04-17T07:59:36.617</time></trkpt><trkpt lat="55.8381089" lon="48.9311404"><time>2021-04-17T07:59:39.617</time></trkpt><trkpt lat="55.8348025" lon="48.9286860"><time>2021-04-17T08:05:49.590</time></trkpt><trkpt lat="55.8348399" lon="48.9286571"><time>2021-04-17T08:05:52.057</time></trkpt><trkpt lat="55.8348468" lon="48.9286535"><time>2021-04-17T08:05:52.613</time></trkpt><trkpt lat="55.8347950" lon="48.9286567"><time>2021-04-17T08:05:59.607</time></trkpt><trkpt lat="55.8347486" lon="48.9286600"><time>2021-04-17T08:06:03.610</time></trkpt><trkpt lat="55.8346976" lon="48.9286974"><time>2021-04-17T08:06:07.597</time></trkpt><trkpt lat="55.8346722" lon="48.9287810"><time>2021-04-17T08:06:11.600</time></trkpt><trkpt lat="55.8346610" lon="48.9288596"><time>2021-04-17T08:06:15.613</time></trkpt><trkpt lat="55.8346218" lon="48.9288192"><time>2021-04-17T08:06:32.600</time></trkpt><trkpt lat="55.8345914" lon="48.9287416"><time>2021-04-17T08:06:44.610</time></trkpt><trkpt lat="55.8345605" lon="48.9286742"><time>2021-04-17T08:06:49.617</time></trkpt><trkpt lat="55.8345223" lon="48.9286114"><time>2021-04-17T08:06:54.607</time></trkpt><trkpt lat="55.8344837" lon="48.9285374"><time>2021-04-17T08:06:59.640</time></trkpt><trkpt lat="55.8334649" lon="48.9245863"><time>2021-04-17T08:11:23.607</time></trkpt><trkpt lat="55.8335127" lon="48.9246448"><time>2021-04-17T08:11:27.830</time></trkpt><trkpt lat="55.8335664" lon="48.9247046"><time>2021-04-17T08:11:28.603</time></trkpt><trkpt lat="55.8336134" lon="48.9247393"><time>2021-04-17T08:11:31.613</time></trkpt><trkpt lat="55.8336551" lon="48.9247834"><time>2021-04-17T08:11:36.610</time></trkpt><trkpt lat="55.8336730" lon="48.9246893"><time>2021-04-17T08:11:38.600</time></trkpt><trkpt lat="55.8336705" lon="48.9245693"><time>2021-04-17T08:11:40.623</time></trkpt><trkpt lat="55.8336714" lon="48.9244294"><time>2021-04-17T08:11:42.597</time></trkpt><trkpt lat="55.8336794" lon="48.9243450"><time>2021-04-17T08:11:44.600</time></trkpt><trkpt lat="55.8336992" lon="48.9242298"><time>2021-04-17T08:11:47.610</time></trkpt><trkpt lat="55.8337156" lon="48.9241123"><time>2021-04-17T08:11:50.597</time></trkpt><trkpt lat="55.8337209" lon="48.9240268"><time>2021-04-17T08:11:52.593</time></trkpt><trkpt lat="55.8337350" lon="48.9239466"><time>2021-04-17T08:11:55.603</time></trkpt><trkpt lat="55.8337528" lon="48.9238411"><time>2021-04-17T08:11:59.603</time></trkpt><trkpt lat="55.8337644" lon="48.9237638"><time>2021-04-17T08:12:01.600</time></trkpt><trkpt lat="55.8337816" lon="48.9236887"><time>2021-04-17T08:12:04.600</time></trkpt><trkpt lat="55.8337968" lon="48.9236122"><time>2021-04-17T08:12:07.607</time></trkpt><trkpt lat="55.8338158" lon="48.9235318"><time>2021-04-17T08:12:10.710</time></trkpt><trkpt lat="55.8338652" lon="48.9234698"><time>2021-04-17T08:12:14.603</time></trkpt><trkpt lat="55.8338450" lon="48.9235561"><time>2021-04-17T08:12:58.597</time></trkpt><trkpt lat="55.8338225" lon="48.9236656"><time>2021-04-17T08:13:01.593</time></trkpt><trkpt lat="55.8338419" lon="48.9237892"><time>2021-04-17T08:13:03.600</time></trkpt><trkpt lat="55.8338564" lon="48.9239116"><time>2021-04-17T08:13:05.597</time></trkpt><trkpt lat="55.8338553" lon="48.9240232"><time>2021-04-17T08:13:07.607</time></trkpt><trkpt lat="55.8338324" lon="48.9241118"><time>2021-04-17T08:13:11.600</time></trkpt><trkpt lat="55.8338162" lon="48.9241915"><time>2021-04-17T08:13:14.597</time></trkpt><trkpt lat="55.8338182" lon="48.9240983"><time>2021-04-17T08:13:22.643</time></trkpt><trkpt lat="55.8338096" lon="48.9240095"><time>2021-04-17T08:13:24.597</time></trkpt><trkpt lat="55.8338097" lon="48.9239021"><time>2021-04-17T08:13:26.603</time></trkpt><trkpt lat="55.8338152" lon="48.9237896"><time>2021-04-17T08:13:29.617</time></trkpt><trkpt lat="55.8338187" lon="48.9236899"><time>2021-04-17T08:13:32.613</time></trkpt><trkpt lat="55.8338357" lon="48.9236027"><time>2021-04-17T08:13:36.617</time></trkpt><trkpt lat="55.8338422" lon="48.9235217"><time>2021-04-17T08:13:42.770</time></trkpt><trkpt lat="55.8338435" lon="48.9234365"><time>2021-04-17T08:13:46.617</time></trkpt><trkpt lat="55.8338467" lon="48.9234178"><time>2021-04-17T08:13:49.060</time></trkpt><trkpt lat="55.8338243" lon="48.9235128"><time>2021-04-17T08:14:05.633</time></trkpt><trkpt lat="55.8338080" lon="48.9235934"><time>2021-04-17T08:14:11.597</time></trkpt><trkpt lat="55.8338319" lon="48.9237131"><time>2021-04-17T08:14:14.607</time></trkpt><trkpt lat="55.8338355" lon="48.9238049"><time>2021-04-17T08:14:16.600</time></trkpt><trkpt lat="55.8338275" lon="48.9238993"><time>2021-04-17T08:14:19.607</time></trkpt><trkpt lat="55.8338126" lon="48.9239897"><time>2021-04-17T08:14:22.623</time></trkpt><trkpt lat="55.8337992" lon="48.9240940"><time>2021-04-17T08:14:25.610</time></trkpt><trkpt lat="55.8337873" lon="48.9241767"><time>2021-04-17T08:14:26.597</time></trkpt><trkpt lat="55.8337798" lon="48.9243727"><time>2021-04-17T08:14:27.597</time></trkpt><trkpt lat="55.8338037" lon="48.9244830"><time>2021-04-17T08:14:29.620</time></trkpt><trkpt lat="55.8338039" lon="48.9245938"><time>2021-04-17T08:14:33.607</time></trkpt><trkpt lat="55.8337787" lon="48.9246605"><time>2021-04-17T08:14:40.600</time></trkpt><trkpt lat="55.8337521" lon="48.9247293"><time>2021-04-17T08:14:52.617</time></trkpt><trkpt lat="55.8337599" lon="48.9248277"><time>2021-04-17T08:15:42.597</time></trkpt><trkpt lat="55.8337622" lon="48.9249238"><time>2021-04-17T08:15:45.607</time></trkpt><trkpt lat="55.8337182" lon="48.9249846"><time>2021-04-17T08:15:50.603</time></trkpt><trkpt lat="55.8336700" lon="48.9250081"><time>2021-04-17T08:15:54.603</time></trkpt><trkpt lat="55.8336239" lon="48.9250544"><time>2021-04-17T08:15:57.610</time></trkpt><trkpt lat="55.8335754" lon="48.9250836"><time>2021-04-17T08:16:02.603</time></trkpt><trkpt lat="55.8335310" lon="48.9251284"><time>2021-04-17T08:16:06.600</time></trkpt><trkpt lat="55.8334842" lon="48.9251937"><time>2021-04-17T08:16:09.607</time></trkpt><trkpt lat="55.8334502" lon="48.9252639"><time>2021-04-17T08:16:11.603</time></trkpt><trkpt lat="55.8334048" lon="48.9252325"><time>2021-04-17T08:16:15.607</time></trkpt><trkpt lat="55.8333682" lon="48.9252912"><time>2021-04-17T08:16:21.610</time></trkpt><trkpt lat="55.8333439" lon="48.9253825"><time>2021-04-17T08:16:25.610</time></trkpt><trkpt lat="55.8333211" lon="48.9254581"><time>2021-04-17T08:16:28.620</time></trkpt><trkpt lat="55.8332820" lon="48.9255064"><time>2021-04-17T08:16:32.617</time></trkpt><trkpt lat="55.8332335" lon="48.9255151"><time>2021-04-17T08:16:38.613</time></trkpt><trkpt lat="55.8331871" lon="48.9254873"><time>2021-04-17T08:16:49.613</time></trkpt><trkpt lat="55.8331417" lon="48.9254785"><time>2021-04-17T08:16:54.603</time></trkpt><trkpt lat="55.8331060" lon="48.9255442"><time>2021-04-17T08:16:59.620</time></trkpt><trkpt lat="55.8330636" lon="48.9256123"><time>2021-04-17T08:17:03.610</time></trkpt><trkpt lat="55.8330125" lon="48.9256578"><time>2021-04-17T08:17:07.610</time></trkpt><trkpt lat="55.8329758" lon="48.9257051"><time>2021-04-17T08:17:11.613</time></trkpt><trkpt lat="55.8329393" lon="48.9257545"><time>2021-04-17T08:17:15.627</time></trkpt><trkpt lat="55.8329010" lon="48.9258103"><time>2021-04-17T08:17:22.623</time></trkpt><trkpt lat="55.8328774" lon="48.9258783"><time>2021-04-17T08:17:54.607</time></trkpt><trkpt lat="55.8305254" lon="48.9237082"><time>2021-04-17T08:25:20.647</time></trkpt><trkpt lat="55.8304774" lon="48.9236441"><time>2021-04-17T08:25:22.927</time></trkpt><trkpt lat="55.8304426" lon="48.9235792"><time>2021-04-17T08:25:24.610</time></trkpt><trkpt lat="55.8304153" lon="48.9235055"><time>2021-04-17T08:25:26.603</time></trkpt><trkpt lat="55.8303978" lon="48.9234305"><time>2021-04-17T08:25:29.600</time></trkpt><trkpt lat="55.8304214" lon="48.9233459"><time>2021-04-17T08:25:32.603</time></trkpt><trkpt lat="55.8304687" lon="48.9233229"><time>2021-04-17T08:25:37.613</time></trkpt><trkpt lat="55.8305148" lon="48.9233047"><time>2021-04-17T08:25:43.593</time></trkpt><trkpt lat="55.8305203" lon="48.9232790"><time>2021-04-17T08:25:47.073</time></trkpt><trkpt lat="55.8304644" lon="48.9232893"><time>2021-04-17T08:26:00.607</time></trkpt><trkpt lat="55.8304171" lon="48.9233508"><time>2021-04-17T08:26:03.600</time></trkpt><trkpt lat="55.8304065" lon="48.9234458"><time>2021-04-17T08:26:06.607</time></trkpt><trkpt lat="55.8304201" lon="48.9235311"><time>2021-04-17T08:26:08.617</time></trkpt><trkpt lat="55.8304326" lon="48.9236422"><time>2021-04-17T08:26:10.623</time></trkpt><trkpt lat="55.8304596" lon="48.9237409"><time>2021-04-17T08:26:12.603</time></trkpt><trkpt lat="55.8304998" lon="48.9237879"><time>2021-04-17T08:26:14.620</time></trkpt><trkpt lat="55.8305276" lon="48.9238581"><time>2021-04-17T08:26:16.607</time></trkpt><trkpt lat="55.8305481" lon="48.9239583"><time>2021-04-17T08:26:18.603</time></trkpt><trkpt lat="55.8305635" lon="48.9240496"><time>2021-04-17T08:26:20.610</time></trkpt><trkpt lat="55.8305872" lon="48.9241657"><time>2021-04-17T08:26:22.607</time></trkpt><trkpt lat="55.8306015" lon="48.9242752"><time>2021-04-17T08:26:24.603</time></trkpt><trkpt lat="55.8306170" lon="48.9243730"><time>2021-04-17T08:26:26.607</time></trkpt><trkpt lat="55.8306287" lon="48.9244838"><time>2021-04-17T08:26:29.610</time></trkpt><trkpt lat="55.8306506" lon="48.9245802"><time>2021-04-17T08:26:31.610</time></trkpt><trkpt lat="55.8306663" lon="48.9246744"><time>2021-04-17T08:26:33.610</time></trkpt><trkpt lat="55.8306721" lon="48.9247728"><time>2021-04-17T08:26:35.613</time></trkpt><trkpt lat="55.8306725" lon="48.9248744"><time>2021-04-17T08:26:37.610</time></trkpt><trkpt lat="55.8306713" lon="48.9249732"><time>2021-04-17T08:26:39.600</time></trkpt><trkpt lat="55.8306728" lon="48.9250751"><time>2021-04-17T08:26:42.640</time></trkpt><trkpt lat="55.8306592" lon="48.9251598"><time>2021-04-17T08:26:44.597</time></trkpt><trkpt lat="55.8306739" lon="48.9252554"><time>2021-04-17T08:26:47.603</time></trkpt><trkpt lat="55.8306796" lon="48.9253492"><time>2021-04-17T08:26:50.610</time></trkpt><trkpt lat="55.8306567" lon="48.9254242"><time>2021-04-17T08:26:52.607</time></trkpt><trkpt lat="55.8306230" lon="48.9255126"><time>2021-04-17T08:26:55.607</time></trkpt><trkpt lat="55.8305850" lon="48.9256489"><time>2021-04-17T08:27:07.610</time></trkpt><trkpt lat="55.8305670" lon="48.9257541"><time>2021-04-17T08:27:09.613</time></trkpt><trkpt lat="55.8305224" lon="48.9258269"><time>2021-04-17T08:27:11.607</time></trkpt><trkpt lat="55.8304753" lon="48.9258845"><time>2021-04-17T08:27:13.610</time></trkpt><trkpt lat="55.8304315" lon="48.9259265"><time>2021-04-17T08:27:16.607</time></trkpt><trkpt lat="55.8303836" lon="48.9260134"><time>2021-04-17T08:27:19.603</time></trkpt><trkpt lat="55.8303532" lon="48.9260887"><time>2021-04-17T08:27:22.610</time></trkpt><trkpt lat="55.8303912" lon="48.9261318"><time>2021-04-17T08:27:26.617</time></trkpt><trkpt lat="55.8303434" lon="48.9261114"><time>2021-04-17T08:27:56.610</time></trkpt><trkpt lat="55.8302973" lon="48.9261107"><time>2021-04-17T08:28:01.610</time></trkpt><trkpt lat="55.8302566" lon="48.9260739"><time>2021-04-17T08:28:04.607</time></trkpt><trkpt lat="55.8302055" lon="48.9260583"><time>2021-04-17T08:28:08.610</time></trkpt><trkpt lat="55.8294829" lon="48.9285798"><time>2021-04-17T08:31:37.610</time></trkpt><trkpt lat="55.8294243" lon="48.9285682"><time>2021-04-17T08:31:39.603</time></trkpt><trkpt lat="55.8293707" lon="48.9285573"><time>2021-04-17T08:31:42.623</time></trkpt><trkpt lat="55.8293475" lon="48.9285576"><time>2021-04-17T08:31:46.187</time></trkpt><trkpt lat="55.8293930" lon="48.9286301"><time>2021-04-17T08:32:02.600</time></trkpt><trkpt lat="55.8294384" lon="48.9286502"><time>2021-04-17T08:32:08.603</time></trkpt><trkpt lat="55.8295034" lon="48.9286754"><time>2021-04-17T08:32:13.617</time></trkpt><trkpt lat="55.8295495" lon="48.9287037"><time>2021-04-17T08:32:15.607</time></trkpt><trkpt lat="55.8296126" lon="48.9287171"><time>2021-04-17T08:32:18.607</time></trkpt><trkpt lat="55.8296665" lon="48.9287449"><time>2021-04-17T08:32:21.607</time></trkpt><trkpt lat="55.8297162" lon="48.9287759"><time>2021-04-17T08:32:26.620</time></trkpt><trkpt lat="55.8297235" lon="48.9288660"><time>2021-04-17T08:32:28.603</time></trkpt><trkpt lat="55.8297217" lon="48.9289463"><time>2021-04-17T08:32:36.603</time></trkpt><trkpt lat="55.8297519" lon="48.9290416"><time>2021-04-17T08:32:40.600</time></trkpt><trkpt lat="55.8298048" lon="48.9291334"><time>2021-04-17T08:32:42.603</time></trkpt><trkpt lat="55.8298437" lon="48.9292242"><time>2021-04-17T08:32:44.607</time></trkpt><trkpt lat="55.8298798" lon="48.9293025"><time>2021-04-17T08:32:46.610</time></trkpt><trkpt lat="55.8298826" lon="48.9293836"><time>2021-04-17T08:32:55.610</time></trkpt><trkpt lat="55.8299401" lon="48.9294494"><time>2021-04-17T08:32:58.610</time></trkpt><trkpt lat="55.8300010" lon="48.9295446"><time>2021-04-17T08:33:00.607</time></trkpt><trkpt lat="55.8300413" lon="48.9296348"><time>2021-04-17T08:33:02.610</time></trkpt><trkpt lat="55.8300722" lon="48.9297190"><time>2021-04-17T08:33:13.610</time></trkpt><trkpt lat="55.8301044" lon="48.9297936"><time>2021-04-17T08:33:16.607</time></trkpt><trkpt lat="55.8301531" lon="48.9298580"><time>2021-04-17T08:33:20.607</time></trkpt><trkpt lat="55.8302001" lon="48.9299213"><time>2021-04-17T08:33:23.630</time></trkpt><trkpt lat="55.8302585" lon="48.9299980"><time>2021-04-17T08:33:25.610</time></trkpt><trkpt lat="55.8303005" lon="48.9300711"><time>2021-04-17T08:33:27.640</time></trkpt><trkpt lat="55.8303487" lon="48.9301522"><time>2021-04-17T08:33:42.610</time></trkpt><trkpt lat="55.8303802" lon="48.9302499"><time>2021-04-17T08:33:44.613</time></trkpt><trkpt lat="55.8305969" lon="48.9306455"><time>2021-04-17T08:34:04.617</time></trkpt><trkpt lat="55.8305686" lon="48.9307226"><time>2021-04-17T08:34:08.613</time></trkpt><trkpt lat="55.8305507" lon="48.9308245"><time>2021-04-17T08:34:14.613</time></trkpt><trkpt lat="55.8305222" lon="48.9308973"><time>2021-04-17T08:34:18.607</time></trkpt><trkpt lat="55.8305179" lon="48.9309932"><time>2021-04-17T08:34:35.617</time></trkpt><trkpt lat="55.8304910" lon="48.9310638"><time>2021-04-17T08:34:39.597</time></trkpt><trkpt lat="55.8304435" lon="48.9310448"><time>2021-04-17T08:34:50.630</time></trkpt><trkpt lat="55.8304857" lon="48.9310871"><time>2021-04-17T08:34:59.603</time></trkpt><trkpt lat="55.8309304" lon="48.9322931"><time>2021-04-17T08:35:55.607</time></trkpt><trkpt lat="55.8308156" lon="48.9322496"><time>2021-04-17T08:35:58.667</time></trkpt><trkpt lat="55.8307655" lon="48.9322452"><time>2021-04-17T08:35:58.683</time></trkpt><trkpt lat="55.8307770" lon="48.9323250"><time>2021-04-17T08:36:30.600</time></trkpt><trkpt lat="55.8307900" lon="48.9323276"><time>2021-04-17T08:36:36.517</time></trkpt><trkpt lat="55.8308200" lon="48.9323577"><time>2021-04-17T08:37:24.610</time></trkpt><trkpt lat="55.8308691" lon="48.9323928"><time>2021-04-17T08:37:30.607</time></trkpt><trkpt lat="55.8288629" lon="48.9379698"><time>2021-04-17T08:44:58.587</time></trkpt><trkpt lat="55.8288273" lon="48.9380377"><time>2021-04-17T08:45:08.603</time></trkpt><trkpt lat="55.8287842" lon="48.9380981"><time>2021-04-17T08:45:12.607</time></trkpt><trkpt lat="55.8287351" lon="48.9381058"><time>2021-04-17T08:45:17.623</time></trkpt><trkpt lat="55.8287252" lon="48.9380773"><time>2021-04-17T08:45:30</time></trkpt><trkpt lat="55.8287756" lon="48.9380319"><time>2021-04-17T08:45:47.600</time></trkpt><trkpt lat="55.8288256" lon="48.9380422"><time>2021-04-17T08:45:50.613</time></trkpt><trkpt lat="55.8288627" lon="48.9380897"><time>2021-04-17T08:45:57.603</time></trkpt><trkpt lat="55.8289024" lon="48.9381727"><time>2021-04-17T08:46:00.613</time></trkpt><trkpt lat="55.8289450" lon="48.9382729"><time>2021-04-17T08:46:02.597</time></trkpt><trkpt lat="55.8289783" lon="48.9383579"><time>2021-04-17T08:46:04.603</time></trkpt><trkpt lat="55.8290003" lon="48.9384416"><time>2021-04-17T08:46:06.637</time></trkpt><trkpt lat="55.8290394" lon="48.9385638"><time>2021-04-17T08:46:08.610</time></trkpt><trkpt lat="55.8290778" lon="48.9386684"><time>2021-04-17T08:46:10.613</time></trkpt><trkpt lat="55.8291025" lon="48.9387554"><time>2021-04-17T08:46:12.623</time></trkpt><trkpt lat="55.8291492" lon="48.9388223"><time>2021-04-17T08:46:15.610</time></trkpt><trkpt lat="55.8291963" lon="48.9388686"><time>2021-04-17T08:46:18.630</time></trkpt><trkpt lat="55.8292516" lon="48.9389477"><time>2021-04-17T08:46:20.613</time></trkpt><trkpt lat="55.8292995" lon="48.9390173"><time>2021-04-17T08:46:23.607</time></trkpt><trkpt lat="55.8293383" lon="48.9391098"><time>2021-04-17T08:46:26.607</time></trkpt><trkpt lat="55.8293626" lon="48.9392007"><time>2021-04-17T08:46:29.610</time></trkpt><trkpt lat="55.8293733" lon="48.9393034"><time>2021-04-17T08:46:36.613</time></trkpt><trkpt lat="55.8293935" lon="48.9393788"><time>2021-04-17T08:46:38.607</time></trkpt><trkpt lat="55.8294166" lon="48.9394539"><time>2021-04-17T08:46:42.610</time></trkpt><trkpt lat="55.8294168" lon="48.9395349"><time>2021-04-17T08:46:50.603</time></trkpt><trkpt lat="55.8294147" lon="48.9396198"><time>2021-04-17T08:46:52.610</time></trkpt><trkpt lat="55.8294003" lon="48.9397127"><time>2021-04-17T08:46:54.610</time></trkpt><trkpt lat="55.8293586" lon="48.9397653"><time>2021-04-17T08:46:58.603</time></trkpt><trkpt lat="55.8293534" lon="48.9398583"><time>2021-04-17T08:47:03.603</time></trkpt><trkpt lat="55.8293273" lon="48.9399376"><time>2021-04-17T08:47:11.613</time></trkpt><trkpt lat="55.8293457" lon="48.9400402"><time>2021-04-17T08:47:18.680</time></trkpt><trkpt lat="55.8293496" lon="48.9401340"><time>2021-04-17T08:47:21.623</time></trkpt><trkpt lat="55.8293620" lon="48.9402244"><time>2021-04-17T08:47:25.607</time></trkpt><trkpt lat="55.8293747" lon="48.9403196"><time>2021-04-17T08:47:29.607</time></trkpt><trkpt lat="55.8293641" lon="48.9404411"><time>2021-04-17T08:47:31.607</time></trkpt><trkpt lat="55.8293376" lon="48.9405338"><time>2021-04-17T08:47:33.607</time></trkpt><trkpt lat="55.8293111" lon="48.9406407"><time>2021-04-17T08:47:40.607</time></trkpt><trkpt lat="55.8293086" lon="48.9407406"><time>2021-04-17T08:47:42.630</time></trkpt><trkpt lat="55.8293163" lon="48.9408275"><time>2021-04-17T08:47:45.610</time></trkpt><trkpt lat="55.8293121" lon="48.9409299"><time>2021-04-17T08:47:55.607</time></trkpt><trkpt lat="55.8295801" lon="48.9429761"><time>2021-04-17T08:49:54.610</time></trkpt><trkpt lat="55.8296256" lon="48.9430231"><time>2021-04-17T08:50:04.597</time></trkpt><trkpt lat="55.8296831" lon="48.9430049"><time>2021-04-17T08:50:10.597</time></trkpt><trkpt lat="55.8297442" lon="48.9429910"><time>2021-04-17T08:50:14.610</time></trkpt><trkpt lat="55.8297616" lon="48.9429407"><time>2021-04-17T08:50:23.273</time></trkpt><trkpt lat="55.8297278" lon="48.9429143"><time>2021-04-17T08:50:53.600</time></trkpt><trkpt lat="55.8296765" lon="48.9429159"><time>2021-04-17T08:50:56.607</time></trkpt><trkpt lat="55.8296249" lon="48.9429158"><time>2021-04-17T08:50:59.597</time></trkpt><trkpt lat="55.8295826" lon="48.9429514"><time>2021-04-17T08:51:09.600</time></trkpt><trkpt lat="55.8295717" lon="48.9430378"><time>2021-04-17T08:51:24.617</time></trkpt><trkpt lat="55.8295885" lon="48.9431277"><time>2021-04-17T08:51:30.607</time></trkpt><trkpt lat="55.8296115" lon="48.9432038"><time>2021-04-17T08:51:37.610</time></trkpt><trkpt lat="55.8296302" lon="48.9432862"><time>2021-04-17T08:52:01.617</time></trkpt><trkpt lat="55.8319590" lon="48.9566994"><time>2021-04-17T09:10:37.627</time></trkpt><trkpt lat="55.8319187" lon="48.9566362"><time>2021-04-17T09:10:39.603</time></trkpt><trkpt lat="55.8319187" lon="48.9566362"><time>2021-04-17T09:10:40.037</time></trkpt><trkpt lat="55.8320103" lon="48.9567621"><time>2021-04-17T09:10:40.597</time></trkpt><trkpt lat="55.8320568" lon="48.9567116"><time>2021-04-17T09:10:45.640</time></trkpt><trkpt lat="55.8320805" lon="48.9566344"><time>2021-04-17T09:10:47.607</time></trkpt><trkpt lat="55.8320984" lon="48.9565459"><time>2021-04-17T09:10:49.600</time></trkpt><trkpt lat="55.8321365" lon="48.9564717"><time>2021-04-17T09:10:51.600</time></trkpt><trkpt lat="55.8321477" lon="48.9563726"><time>2021-04-17T09:10:54.620</time></trkpt><trkpt lat="55.8321788" lon="48.9562990"><time>2021-04-17T09:10:56.620</time></trkpt><trkpt lat="55.8322251" lon="48.9562527"><time>2021-04-17T09:10:58.613</time></trkpt><trkpt lat="55.8322776" lon="48.9562184"><time>2021-04-17T09:11:00.620</time></trkpt><trkpt lat="55.8323222" lon="48.9562301"><time>2021-04-17T09:11:02.613</time></trkpt><trkpt lat="55.8323599" lon="48.9562920"><time>2021-04-17T09:11:04.607</time></trkpt><trkpt lat="55.8324162" lon="48.9564047"><time>2021-04-17T09:11:06.613</time></trkpt><trkpt lat="55.8324560" lon="48.9564941"><time>2021-04-17T09:11:08.617</time></trkpt><trkpt lat="55.8324724" lon="48.9565764"><time>2021-04-17T09:11:10.610</time></trkpt><trkpt lat="55.8324772" lon="48.9566666"><time>2021-04-17T09:11:12.600</time></trkpt><trkpt lat="55.8324832" lon="48.9567736"><time>2021-04-17T09:11:14.623</time></trkpt><trkpt lat="55.8324792" lon="48.9568874"><time>2021-04-17T09:11:16.607</time></trkpt><trkpt lat="55.8324737" lon="48.9569989"><time>2021-04-17T09:11:18.610</time></trkpt><trkpt lat="55.8324664" lon="48.9571183"><time>2021-04-17T09:11:20.613</time></trkpt><trkpt lat="55.8324610" lon="48.9572167"><time>2021-04-17T09:11:22.613</time></trkpt><trkpt lat="55.8324429" lon="48.9573007"><time>2021-04-17T09:11:25.610</time></trkpt><trkpt lat="55.8324304" lon="48.9573928"><time>2021-04-17T09:11:27.607</time></trkpt><trkpt lat="55.8324241" lon="48.9574934"><time>2021-04-17T09:11:29.603</time></trkpt><trkpt lat="55.8324160" lon="48.9575892"><time>2021-04-17T09:11:32.617</time></trkpt><trkpt lat="55.8324224" lon="48.9576801"><time>2021-04-17T09:11:36.610</time></trkpt><trkpt lat="55.8324547" lon="48.9576222"><time>2021-04-17T09:11:44.600</time></trkpt><trkpt lat="55.8324668" lon="48.9577223"><time>2021-04-17T09:11:49.640</time></trkpt><trkpt lat="55.8325041" lon="48.9577866"><time>2021-04-17T09:11:52.603</time></trkpt><trkpt lat="55.8325438" lon="48.9578729"><time>2021-04-17T09:11:54.613</time></trkpt><trkpt lat="55.8325932" lon="48.9579747"><time>2021-04-17T09:11:56.620</time></trkpt><trkpt lat="55.8326317" lon="48.9580712"><time>2021-04-17T09:11:58.617</time></trkpt><trkpt lat="55.8326652" lon="48.9581731"><time>2021-04-17T09:12:00.610</time></trkpt><trkpt lat="55.8326898" lon="48.9582576"><time>2021-04-17T09:12:02.607</time></trkpt><trkpt lat="55.8327151" lon="48.9583260"><time>2021-04-17T09:12:04.610</time></trkpt><trkpt lat="55.8327527" lon="48.9584246"><time>2021-04-17T09:12:08.610</time></trkpt><trkpt lat="55.8327850" lon="48.9584864"><time>2021-04-17T09:12:13.630</time></trkpt><trkpt lat="55.8328251" lon="48.9585261"><time>2021-04-17T09:12:19.653</time></trkpt><trkpt lat="55.8328683" lon="48.9585519"><time>2021-04-17T09:12:27.613</time></trkpt><trkpt lat="55.8329193" lon="48.9585491"><time>2021-04-17T09:12:32.613</time></trkpt><trkpt lat="55.8329665" lon="48.9585119"><time>2021-04-17T09:12:35.620</time></trkpt><trkpt lat="55.8330074" lon="48.9584635"><time>2021-04-17T09:12:38.620</time></trkpt><trkpt lat="55.8330492" lon="48.9584197"><time>2021-04-17T09:12:42.600</time></trkpt><trkpt lat="55.8330985" lon="48.9584055"><time>2021-04-17T09:12:47.287</time></trkpt><trkpt lat="55.8331529" lon="48.9584205"><time>2021-04-17T09:12:49.610</time></trkpt><trkpt lat="55.8331971" lon="48.9584541"><time>2021-04-17T09:12:53.590</time></trkpt><trkpt lat="55.8332434" lon="48.9585003"><time>2021-04-17T09:12:57.640</time></trkpt><trkpt lat="55.8333022" lon="48.9585366"><time>2021-04-17T09:13:00.610</time></trkpt><trkpt lat="55.8333533" lon="48.9585463"><time>2021-04-17T09:13:03.613</time></trkpt><trkpt lat="55.8334081" lon="48.9585639"><time>2021-04-17T09:13:06.610</time></trkpt><trkpt lat="55.8334669" lon="48.9585983"><time>2021-04-17T09:13:08.650</time></trkpt><trkpt lat="55.8335092" lon="48.9586421"><time>2021-04-17T09:13:10.617</time></trkpt><trkpt lat="55.8335661" lon="48.9587442"><time>2021-04-17T09:13:12.607</time></trkpt><trkpt lat="55.8336034" lon="48.9588152"><time>2021-04-17T09:13:14.620</time></trkpt><trkpt lat="55.8336878" lon="48.9587427"><time>2021-04-17T09:13:16.627</time></trkpt><trkpt lat="55.8337491" lon="48.9586735"><time>2021-04-17T09:13:18.610</time></trkpt><trkpt lat="55.8338019" lon="48.9586788"><time>2021-04-17T09:13:20.627</time></trkpt><trkpt lat="55.8338387" lon="48.9586190"><time>2021-04-17T09:13:25.623</time></trkpt><trkpt lat="55.8339015" lon="48.9585669"><time>2021-04-17T09:13:27.613</time></trkpt><trkpt lat="55.8339438" lon="48.9585236"><time>2021-04-17T09:13:29.603</time></trkpt><trkpt lat="55.8339924" lon="48.9584435"><time>2021-04-17T09:13:34.613</time></trkpt><trkpt lat="55.8340340" lon="48.9583971"><time>2021-04-17T09:13:36.613</time></trkpt><trkpt lat="55.8340839" lon="48.9583535"><time>2021-04-17T09:13:40.620</time></trkpt><trkpt lat="55.8341342" lon="48.9583017"><time>2021-04-17T09:13:42.613</time></trkpt><trkpt lat="55.8341852" lon="48.9582354"><time>2021-04-17T09:13:44.627</time></trkpt><trkpt lat="55.8345007" lon="48.9576366"><time>2021-04-17T09:14:24.597</time></trkpt><trkpt lat="55.8345156" lon="48.9577437"><time>2021-04-17T09:14:25.597</time></trkpt></trkseg></trk></gpx>